Woody Richerson — WDF9621 — position and weather

sailwx.info

Track history (hours):
 
Tides and Currents Weather Stations Pressure Air Temp Water Temp Dewpoint Dewpoint Depression Visibility Wind Speed Wind Dir Waves Ship Positions

Woody Richerson

Owner: Florida Marine, LLC, Mandeville, LA. More information available from US FCC via Universal Licensing System and Coast Guard Vessel Documentation Center.

Last reported at 2015-Mar-14 14:30 UTC. Time now 2015-Apr-02 01:25 UTC.
Position N 29°21' W 094°49'.
Warning: this ship's position is 18 days out of date.

Length 27 m.

Type: Other ship. MMSI: 367507070.

Date/timePositionNaut miles runAvg speedWind from/ knotsBaromVisibWave heightAir tempDewpointWater temp
2015-Mar-14 14:30N 29°21' W 094°49'4 3.2
2015-Mar-14 13:20N 29°25' W 094°49'7 8.4
2015-Mar-14 12:34N 29°31' W 094°53'8 7.9
2015-Mar-14 11:34N 29°37' W 094°58'8 7.8
2015-Mar-14 10:34N 29°44' W 095°02'3 3.4
2015-Mar-14 09:32N 29°47' W 095°05'0 0.1
2015-Mar-14 08:33N 29°47' W 095°05'0 0.0
2015-Mar-14 07:33N 29°47' W 095°05'0 0.0
2015-Mar-14 06:34N 29°47' W 095°05'0 0.0
2015-Mar-14 05:34N 29°47' W 095°05'1 1.1
2015-Mar-14 04:33N 29°47' W 095°04'0 0.0
2015-Mar-14 03:34N 29°47' W 095°04'1 0.4
2015-Mar-14 00:30N 29°47' W 095°05'0 0.0
2015-Mar-13 22:24N 29°47' W 095°05'0 0.0
2015-Mar-13 21:30N 29°47' W 095°05'0 0.0
2015-Mar-13 20:29N 29°47' W 095°05'0 0.5
2015-Mar-13 19:31N 29°46' W 095°05'1 1.2
2015-Mar-13 18:33N 29°46' W 095°06'0 0.1
2015-Mar-13 15:32N 29°46' W 095°06'1 0.1
2015-Mar-13 04:27N 29°46' W 095°05'2 1.1
2015-Mar-13 02:33N 29°47' W 095°04'1 1.2
2015-Mar-13 01:33N 29°47' W 095°05'4 3.5
2015-Mar-13 00:31N 29°44' W 095°02'0 0.4
2015-Mar-12 23:33N 29°44' W 095°01'0 0.0
2015-Mar-12 22:34N 29°44' W 095°01'0 0.0
2015-Mar-12 21:33N 29°44' W 095°01'0 0.0
2015-Mar-12 20:34N 29°44' W 095°01'0 0.0
2015-Mar-12 19:34N 29°44' W 095°01'0 0.1
2015-Mar-12 18:21N 29°44' W 095°01'0 0.0
2015-Mar-12 17:33N 29°44' W 095°01'0 0.0
2015-Mar-12 16:33N 29°44' W 095°01'0 0.0
2015-Mar-12 15:33N 29°44' W 095°01'0 0.0
2015-Mar-12 14:34N 29°44' W 095°01'0 0.0
2015-Mar-12 13:33N 29°44' W 095°01'0 0.0
2015-Mar-12 06:31N 29°44' W 095°01'0 0.0
2015-Mar-12 05:20N 29°44' W 095°01'0 0.0
2015-Mar-12 04:18N 29°44' W 095°01'0 0.0
2015-Mar-12 02:30N 29°44' W 095°01'0 0.0
2015-Mar-11 23:32N 29°44' W 095°01'0 0.0
2015-Mar-11 18:22N 29°44' W 095°01'0 0.3
2015-Mar-11 17:34N 29°44' W 095°01'0 0.3
2015-Mar-11 16:30N 29°44' W 095°01'0 0.0
2015-Mar-11 15:33N 29°44' W 095°01'0 0.0
2015-Mar-11 14:33N 29°44' W 095°01'0 0.0
2015-Mar-11 13:33N 29°44' W 095°01'0 0.0
2015-Mar-11 12:31N 29°44' W 095°01'0 0.0
2015-Mar-11 11:33N 29°44' W 095°01'0 0.0
2015-Mar-11 10:34N 29°44' W 095°01'0 0.0
2015-Mar-11 09:34N 29°44' W 095°01'0 0.0
2015-Mar-11 08:33N 29°44' W 095°01'0 0.0
2015-Mar-11 07:33N 29°44' W 095°01'0 0.0
2015-Mar-11 06:33N 29°44' W 095°01'0 0.0
2015-Mar-11 05:31N 29°44' W 095°01'0 0.0
2015-Mar-11 04:28N 29°44' W 095°01'0 0.0
2015-Mar-11 03:33N 29°44' W 095°01'0 0.0
2015-Mar-11 01:23N 29°44' W 095°01'0 0.0
2015-Mar-11 00:20N 29°44' W 095°01'0 0.0
2015-Mar-10 22:21N 29°44' W 095°01'0 0.0
2015-Mar-10 21:31N 29°44' W 095°01'0 0.0
2015-Mar-10 19:33N 29°44' W 095°01'0 0.0
2015-Mar-10 17:11N 29°44' W 095°01'0 0.0
2015-Mar-10 15:33N 29°44' W 095°01'0 0.0
2015-Mar-10 14:30N 29°44' W 095°01'0 0.0
2015-Mar-10 13:32N 29°44' W 095°01'0 0.0
2015-Mar-10 12:31N 29°44' W 095°01'0 0.0
2015-Mar-10 11:31N 29°44' W 095°01'4 1.9
2015-Mar-10 09:26N 29°47' W 095°04'5 5.2
2015-Mar-10 08:32N 29°44' W 095°08'2 1.6
2015-Mar-10 07:26N 29°45' W 095°10'0 0.0
2015-Mar-10 06:29N 29°45' W 095°10'0 0.0
2015-Mar-10 05:32N 29°45' W 095°10'0 0.0
2015-Mar-10 04:33N 29°45' W 095°10'0 0.0
2015-Mar-10 03:29N 29°45' W 095°10'0 0.0
2015-Mar-10 02:30N 29°45' W 095°10'0 0.0
2015-Mar-10 01:33N 29°45' W 095°10'0 0.0
2015-Mar-10 00:32N 29°45' W 095°10'0 0.0
2015-Mar-09 21:18N 29°45' W 095°10'0 0.0
2015-Mar-09 19:12N 29°45' W 095°10'0 0.0
2015-Mar-09 18:29N 29°45' W 095°10'0 0.0
2015-Mar-09 17:31N 29°45' W 095°10'0 0.0
2015-Mar-09 16:33N 29°45' W 095°10'0 0.0
2015-Mar-09 15:33N 29°45' W 095°10'0 0.0
2015-Mar-09 14:33N 29°45' W 095°10'0 0.0
2015-Mar-09 13:33N 29°45' W 095°10'0 0.0
2015-Mar-09 12:33N 29°45' W 095°10'4 3.4
2015-Mar-09 11:23N 29°46' W 095°05'2 3.0
2015-Mar-09 10:33N 29°47' W 095°04'1 1.2
2015-Mar-09 09:32N 29°47' W 095°05'5 1.5
2015-Mar-09 06:06N 29°45' W 095°10'0 0.0
2015-Mar-09 01:15N 29°45' W 095°10'0 0.0
2015-Mar-09 00:26N 29°45' W 095°10'0 0.0
2015-Mar-08 23:31N 29°45' W 095°10'0 0.0
2015-Mar-08 22:28N 29°45' W 095°10'0 0.0
2015-Mar-08 21:32N 29°45' W 095°10'0 0.0
2015-Mar-08 20:25N 29°45' W 095°10'0 0.0
2015-Mar-08 19:33N 29°45' W 095°10'0 0.0
2015-Mar-08 18:27N 29°45' W 095°10'0 0.0
2015-Mar-08 17:22N 29°45' W 095°10'0 0.0
2015-Mar-08 16:28N 29°45' W 095°10'0 0.0
2015-Mar-08 15:30N 29°45' W 095°10'0 0.0
2015-Mar-08 14:21N 29°45' W 095°10'0 0.0
2015-Mar-08 11:30N 29°45' W 095°10'0 0.0
2015-Mar-08 10:25N 29°45' W 095°10'0 0.0
2015-Mar-08 09:19N 29°45' W 095°10'0 0.0
2015-Mar-08 07:29N 29°45' W 095°10'5 2.6
2015-Mar-08 05:31N 29°47' W 095°05'0 0.0
2015-Mar-08 02:31N 29°47' W 095°05'1 0.2
2015-Mar-07 23:30N 29°46' W 095°05'4 4.6
2015-Mar-07 22:34N 29°43' W 095°01'5 5.3
2015-Mar-07 21:33N 29°38' W 094°58'6 6.1
2015-Mar-07 20:34N 29°33' W 094°54'  
Track history (hours):
 
Tides and Currents Weather Stations Pressure Air Temp Water Temp Dewpoint Dewpoint Depression Visibility Wind Speed Wind Dir Waves Ship Positions

Woody Richerson

Owner: Florida Marine, LLC, Mandeville, LA. More information available from US FCC via Universal Licensing System and Coast Guard Vessel Documentation Center.

Last reported at 2015-Mar-14 14:30 UTC. Time now 2015-Apr-02 01:25 UTC.
Position N 29°21' W 094°49'.
Warning: this ship's position is 18 days out of date.

Length 27 m.

Type: Other ship. MMSI: 367507070.

Date/timePositionNaut miles runAvg speedWind from/ knotsBaromVisibWave heightAir tempDewpointWater temp
2015-Mar-14 14:30N 29°21' W 094°49'4 3.2
2015-Mar-14 13:20N 29°25' W 094°49'7 8.4
2015-Mar-14 12:34N 29°31' W 094°53'8 7.9
2015-Mar-14 11:34N 29°37' W 094°58'8 7.8
2015-Mar-14 10:34N 29°44' W 095°02'3 3.4
2015-Mar-14 09:32N 29°47' W 095°05'0 0.1
2015-Mar-14 08:33N 29°47' W 095°05'0 0.0
2015-Mar-14 07:33N 29°47' W 095°05'0 0.0
2015-Mar-14 06:34N 29°47' W 095°05'0 0.0
2015-Mar-14 05:34N 29°47' W 095°05'1 1.1
2015-Mar-14 04:33N 29°47' W 095°04'0 0.0
2015-Mar-14 03:34N 29°47' W 095°04'1 0.4
2015-Mar-14 00:30N 29°47' W 095°05'0 0.0
2015-Mar-13 22:24N 29°47' W 095°05'0 0.0
2015-Mar-13 21:30N 29°47' W 095°05'0 0.0
2015-Mar-13 20:29N 29°47' W 095°05'0 0.5
2015-Mar-13 19:31N 29°46' W 095°05'1 1.2
2015-Mar-13 18:33N 29°46' W 095°06'0 0.1
2015-Mar-13 15:32N 29°46' W 095°06'1 0.1
2015-Mar-13 04:27N 29°46' W 095°05'2 1.1
2015-Mar-13 02:33N 29°47' W 095°04'1 1.2
2015-Mar-13 01:33N 29°47' W 095°05'4 3.5
2015-Mar-13 00:31N 29°44' W 095°02'0 0.4
2015-Mar-12 23:33N 29°44' W 095°01'0 0.0
2015-Mar-12 22:34N 29°44' W 095°01'0 0.0
2015-Mar-12 21:33N 29°44' W 095°01'0 0.0
2015-Mar-12 20:34N 29°44' W 095°01'0 0.0
2015-Mar-12 19:34N 29°44' W 095°01'0 0.1
2015-Mar-12 18:21N 29°44' W 095°01'0 0.0
2015-Mar-12 17:33N 29°44' W 095°01'0 0.0
2015-Mar-12 16:33N 29°44' W 095°01'0 0.0
2015-Mar-12 15:33N 29°44' W 095°01'0 0.0
2015-Mar-12 14:34N 29°44' W 095°01'0 0.0
2015-Mar-12 13:33N 29°44' W 095°01'0 0.0
2015-Mar-12 06:31N 29°44' W 095°01'0 0.0
2015-Mar-12 05:20N 29°44' W 095°01'0 0.0
2015-Mar-12 04:18N 29°44' W 095°01'0 0.0
2015-Mar-12 02:30N 29°44' W 095°01'0 0.0
2015-Mar-11 23:32N 29°44' W 095°01'0 0.0
2015-Mar-11 18:22N 29°44' W 095°01'0 0.3
2015-Mar-11 17:34N 29°44' W 095°01'0 0.3
2015-Mar-11 16:30N 29°44' W 095°01'0 0.0
2015-Mar-11 15:33N 29°44' W 095°01'0 0.0
2015-Mar-11 14:33N 29°44' W 095°01'0 0.0
2015-Mar-11 13:33N 29°44' W 095°01'0 0.0
2015-Mar-11 12:31N 29°44' W 095°01'0 0.0
2015-Mar-11 11:33N 29°44' W 095°01'0 0.0
2015-Mar-11 10:34N 29°44' W 095°01'0 0.0
2015-Mar-11 09:34N 29°44' W 095°01'0 0.0
2015-Mar-11 08:33N 29°44' W 095°01'0 0.0
2015-Mar-11 07:33N 29°44' W 095°01'0 0.0
2015-Mar-11 06:33N 29°44' W 095°01'0 0.0
2015-Mar-11 05:31N 29°44' W 095°01'0 0.0
2015-Mar-11 04:28N 29°44' W 095°01'0 0.0
2015-Mar-11 03:33N 29°44' W 095°01'0 0.0
2015-Mar-11 01:23N 29°44' W 095°01'0 0.0
2015-Mar-11 00:20N 29°44' W 095°01'0 0.0
2015-Mar-10 22:21N 29°44' W 095°01'0 0.0
2015-Mar-10 21:31N 29°44' W 095°01'0 0.0
2015-Mar-10 19:33N 29°44' W 095°01'0 0.0
2015-Mar-10 17:11N 29°44' W 095°01'0 0.0
2015-Mar-10 15:33N 29°44' W 095°01'0 0.0
2015-Mar-10 14:30N 29°44' W 095°01'0 0.0
2015-Mar-10 13:32N 29°44' W 095°01'0 0.0
2015-Mar-10 12:31N 29°44' W 095°01'0 0.0
2015-Mar-10 11:31N 29°44' W 095°01'4 1.9
2015-Mar-10 09:26N 29°47' W 095°04'5 5.2
2015-Mar-10 08:32N 29°44' W 095°08'2 1.6
2015-Mar-10 07:26N 29°45' W 095°10'0 0.0
2015-Mar-10 06:29N 29°45' W 095°10'0 0.0
2015-Mar-10 05:32N 29°45' W 095°10'0 0.0
2015-Mar-10 04:33N 29°45' W 095°10'0 0.0
2015-Mar-10 03:29N 29°45' W 095°10'0 0.0
2015-Mar-10 02:30N 29°45' W 095°10'0 0.0
2015-Mar-10 01:33N 29°45' W 095°10'0 0.0
2015-Mar-10 00:32N 29°45' W 095°10'0 0.0
2015-Mar-09 21:18N 29°45' W 095°10'0 0.0
2015-Mar-09 19:12N 29°45' W 095°10'0 0.0
2015-Mar-09 18:29N 29°45' W 095°10'0 0.0
2015-Mar-09 17:31N 29°45' W 095°10'0 0.0
2015-Mar-09 16:33N 29°45' W 095°10'0 0.0
2015-Mar-09 15:33N 29°45' W 095°10'0 0.0
2015-Mar-09 14:33N 29°45' W 095°10'0 0.0
2015-Mar-09 13:33N 29°45' W 095°10'0 0.0
2015-Mar-09 12:33N 29°45' W 095°10'4 3.4
2015-Mar-09 11:23N 29°46' W 095°05'2 3.0
2015-Mar-09 10:33N 29°47' W 095°04'1 1.2
2015-Mar-09 09:32N 29°47' W 095°05'5 1.5
2015-Mar-09 06:06N 29°45' W 095°10'0 0.0
2015-Mar-09 01:15N 29°45' W 095°10'0 0.0
2015-Mar-09 00:26N 29°45' W 095°10'0 0.0
2015-Mar-08 23:31N 29°45' W 095°10'0 0.0
2015-Mar-08 22:28N 29°45' W 095°10'0 0.0
2015-Mar-08 21:32N 29°45' W 095°10'0 0.0
2015-Mar-08 20:25N 29°45' W 095°10'0 0.0
2015-Mar-08 19:33N 29°45' W 095°10'0 0.0
2015-Mar-08 18:27N 29°45' W 095°10'0 0.0
2015-Mar-08 17:22N 29°45' W 095°10'0 0.0
2015-Mar-08 16:28N 29°45' W 095°10'0 0.0
2015-Mar-08 15:30N 29°45' W 095°10'0 0.0
2015-Mar-08 14:21N 29°45' W 095°10'0 0.0
2015-Mar-08 11:30N 29°45' W 095°10'0 0.0
2015-Mar-08 10:25N 29°45' W 095°10'0 0.0
2015-Mar-08 09:19N 29°45' W 095°10'0 0.0
2015-Mar-08 07:29N 29°45' W 095°10'5 2.6
2015-Mar-08 05:31N 29°47' W 095°05'0 0.0
2015-Mar-08 02:31N 29°47' W 095°05'1 0.2
2015-Mar-07 23:30N 29°46' W 095°05'4 4.6
2015-Mar-07 22:34N 29°43' W 095°01'5 5.3
2015-Mar-07 21:33N 29°38' W 094°58'6 6.1
2015-Mar-07 20:34N 29°33' W 094°54'  

Dump ship's entire track history